Time;durP1;ratioP1;P1;durP2;ratioP2;P2;SDS_P1;SDS_P2;PMS_P1;PMS_P2;Temp;Humidity;BMP_temperature;BMP_pressure;BME280_temperature;BME280_humidity;BME280_pressure;Samples;Min_cycle;Max_cycle;Signal;HPM_P1;HPM_P2
2022/07/14 00:00:56;;;;;;;2.55;1.50;;;;;;;17.54;70.15;93594.81;2106562;28;20483;-79
2022/07/14 00:01:57;;;;;;;2.08;1.13;;;;;;;17.53;70.65;93597.97;2099230;28;20016;-79
2022/07/14 00:02:58;;;;;;;3.80;1.17;;;;;;;17.56;71.16;93607.88;2098406;28;20036;-79
2022/07/14 00:04:00;;;;;;;1.33;1.20;;;;;;;17.58;71.27;93613.59;2103664;28;20043;-79
2022/07/14 00:05:01;;;;;;;1.17;1.08;;;;;;;17.54;72.99;93611.03;2098212;28;20016;-78
2022/07/14 00:06:02;;;;;;;1.35;1.20;;;;;;;17.58;71.69;93608.94;2104963;28;20020;-79
2022/07/14 00:07:03;;;;;;;3.90;1.10;;;;;;;17.61;72.12;93604.59;2106571;28;20035;-79
2022/07/14 00:08:04;;;;;;;2.28;1.30;;;;;;;17.59;73.06;93593.47;2097655;28;20082;-79
2022/07/14 00:09:05;;;;;;;3.05;1.30;;;;;;;17.50;75.80;93596.16;2090050;28;20417;-79
2022/07/14 00:10:06;;;;;;;3.05;1.42;;;;;;;17.55;73.76;93604.41;2097937;28;20035;-79
2022/07/14 00:11:07;;;;;;;3.28;1.20;;;;;;;17.58;74.45;93608.94;2086893;28;20409;-79
2022/07/14 00:12:08;;;;;;;1.15;1.00;;;;;;;17.60;73.13;93609.25;2106588;28;20055;-79
2022/07/14 00:13:09;;;;;;;1.48;1.20;;;;;;;17.62;72.92;93606.84;2103991;28;20110;-79
2022/07/14 00:14:10;;;;;;;1.42;1.30;;;;;;;17.59;73.60;93607.72;2104416;28;20019;-79
2022/07/14 00:15:11;;;;;;;1.48;1.30;;;;;;;17.65;72.75;93594.38;2103624;28;20063;-79
2022/07/14 00:16:12;;;;;;;2.58;1.50;;;;;;;17.61;79.41;93588.38;2097918;28;20385;-79
2022/07/14 00:17:13;;;;;;;1.42;1.27;;;;;;;17.53;77.33;93582.50;2093058;28;20033;-79
2022/07/14 00:18:14;;;;;;;3.20;1.50;;;;;;;17.47;78.85;93570.78;2090425;28;20025;-79
2022/07/14 00:19:15;;;;;;;2.60;1.50;;;;;;;17.48;75.18;93561.47;2089855;28;20029;-78
2022/07/14 00:20:16;;;;;;;2.58;1.35;;;;;;;17.58;72.20;93568.38;2094099;28;20074;-78
2022/07/14 00:21:18;;;;;;;4.63;1.40;;;;;;;17.58;71.91;93571.09;2102928;28;20031;-79
2022/07/14 00:22:19;;;;;;;2.42;1.27;;;;;;;17.68;68.95;93579.94;2098532;28;20408;-79
2022/07/14 00:23:21;;;;;;;3.28;1.63;;;;;;;17.76;69.25;93577.75;2107120;28;20024;-78
2022/07/14 00:24:22;;;;;;;2.63;1.50;;;;;;;17.96;68.46;93585.41;2106788;28;20016;-78
2022/07/14 00:25:25;;;;;;;1.90;1.33;;;;;;;17.90;69.61;93589.91;2111776;28;20030;-78
2022/07/14 00:26:26;;;;;;;2.15;1.40;;;;;;;17.97;68.76;93597.72;2114383;28;20095;-78
2022/07/14 00:27:27;;;;;;;2.47;1.23;;;;;;;17.91;67.60;93594.13;2101700;28;20576;-78
2022/07/14 00:28:28;;;;;;;2.05;1.17;;;;;;;17.84;70.06;93581.66;2092788;28;20037;-78
2022/07/14 00:29:31;;;;;;;6.65;1.60;;;;;;;17.83;67.04;93578.19;2104438;28;20024;-78
2022/07/14 00:30:32;;;;;;;2.92;1.25;;;;;;;17.81;66.81;93577.13;2090400;28;20032;-78
2022/07/14 00:31:34;;;;;;;2.47;1.23;;;;;;;17.81;66.44;93579.84;2089388;28;20155;-79
2022/07/14 00:32:35;;;;;;;4.03;1.45;;;;;;;17.84;67.63;93573.53;2098066;28;20028;-78
2022/07/14 00:33:40;;;;;;;2.47;1.40;;;;;;;17.92;65.41;93579.41;2104473;28;20024;-79
2022/07/14 00:34:41;;;;;;;2.50;1.27;;;;;;;17.94;65.21;93574.28;2090327;28;20155;-78
2022/07/14 00:35:42;;;;;;;2.17;1.23;;;;;;;17.90;66.01;93576.38;2106317;28;20032;-78
2022/07/14 00:36:43;;;;;;;4.20;1.17;;;;;;;17.79;67.82;93579.56;2109535;28;20019;-78
2022/07/14 00:37:44;;;;;;;3.90;1.40;;;;;;;17.75;70.36;93573.53;2106186;28;20019;-79
2022/07/14 00:38:45;;;;;;;6.47;1.30;;;;;;;17.64;71.74;93573.94;2106033;28;20061;-78
2022/07/14 00:39:55;;;;;;;5.00;1.50;;;;;;;17.51;75.22;93571.38;2089502;28;20055;-79
2022/07/14 00:40:56;;;;;;;1.52;1.20;;;;;;;17.42;73.74;93582.16;2106779;28;20031;-79
2022/07/14 00:41:57;;;;;;;2.75;1.40;;;;;;;17.41;75.53;93572.56;2105512;28;20384;-78
2022/07/14 00:42:58;;;;;;;2.45;1.25;;;;;;;17.36;74.63;93570.47;2089689;28;20025;-78
2022/07/14 00:43:59;;;;;;;1.50;1.30;;;;;;;17.35;75.87;93577.81;2098075;28;20025;-79
2022/07/14 00:45:04;;;;;;;2.08;1.40;;;;;;;17.33;74.26;93576.75;2113960;28;20023;-78
2022/07/14 00:46:05;;;;;;;4.78;1.17;;;;;;;17.26;73.86;93575.09;2102150;28;20035;-79
2022/07/14 00:47:06;;;;;;;2.17;1.00;;;;;;;17.28;73.23;93571.94;2099362;28;20073;-78
2022/07/14 00:48:07;;;;;;;3.55;1.20;;;;;;;17.26;75.34;93575.09;2114696;28;20024;-78
2022/07/14 00:49:08;;;;;;;2.45;1.20;;;;;;;17.28;74.10;93566.53;2106044;28;20020;-78
2022/07/14 00:50:17;;;;;;;1.58;1.17;;;;;;;17.26;75.23;93561.59;2097016;28;20070;-78
2022/07/14 00:51:18;;;;;;;3.58;1.40;;;;;;;17.07;76.78;93562.72;2098687;28;20024;-79
2022/07/14 00:52:19;;;;;;;1.45;1.23;;;;;;;17.02;78.09;93555.22;2097355;28;20052;-79
2022/07/14 00:53:20;;;;;;;3.83;1.75;;;;;;;17.06;78.67;93556.59;2105182;28;20049;-79
2022/07/14 00:54:25;;;;;;;2.05;1.42;;;;;;;17.00;77.85;93546.81;2104878;28;20498;-78
2022/07/14 00:55:26;;;;;;;1.30;1.20;;;;;;;16.97;77.42;93551.16;2098894;28;20531;-79
2022/07/14 00:56:27;;;;;;;4.97;1.50;;;;;;;17.03;76.56;93551.31;2097581;28;20070;-78
2022/07/14 00:57:28;;;;;;;4.40;1.60;;;;;;;17.02;76.83;93553.28;2105836;28;20031;-78
2022/07/14 00:58:29;;;;;;;1.42;1.30;;;;;;;17.05;76.25;93549.69;2113056;27;20016;-79
2022/07/14 00:59:30;;;;;;;1.98;1.27;;;;;;;17.06;75.93;93550.44;2113975;28;20517;-78
2022/07/14 01:00:31;;;;;;;2.10;1.20;;;;;;;17.11;75.48;93544.44;2105848;28;20036;-79
2022/07/14 01:01:32;;;;;;;3.05;1.40;;;;;;;17.14;76.79;93542.81;2088876;28;20060;-79
2022/07/14 01:02:33;;;;;;;3.70;1.35;;;;;;;17.00;79.41;93539.47;2102039;28;20102;-79
2022/07/14 01:03:35;;;;;;;1.73;1.30;;;;;;;16.97;80.53;93531.50;2103147;28;20036;-79
2022/07/14 01:04:37;;;;;;;2.95;1.38;;;;;;;17.00;79.15;93528.66;2095067;28;20017;-79
2022/07/14 01:05:38;;;;;;;1.42;1.33;;;;;;;17.00;79.35;93531.38;2106505;27;20070;-79
2022/07/14 01:06:39;;;;;;;1.80;1.40;;;;;;;16.95;78.17;93526.56;2110070;28;20034;-78
2022/07/14 01:07:41;;;;;;;2.33;1.35;;;;;;;16.89;78.50;93531.03;2105862;28;20028;-79
2022/07/14 01:08:42;;;;;;;1.42;1.20;;;;;;;16.77;80.99;93534.56;2097494;28;20020;-79
2022/07/14 01:09:44;;;;;;;2.70;1.33;;;;;;;16.70;83.22;93537.53;2103351;28;20032;-79
2022/07/14 01:10:46;;;;;;;1.63;1.30;;;;;;;16.66;82.59;93537.66;2103338;28;20749;-79
2022/07/14 01:11:47;;;;;;;3.55;1.13;;;;;;;16.68;83.15;93532.59;2114608;27;20034;-79
2022/07/14 01:12:48;;;;;;;1.92;1.25;;;;;;;16.58;83.67;93545.28;2115884;27;20516;-78
2022/07/14 01:13:49;;;;;;;1.90;1.20;;;;;;;16.66;81.84;93534.97;2107931;28;20066;-79
2022/07/14 01:14:50;;;;;;;2.70;1.20;;;;;;;16.67;81.68;93533.78;2105700;28;20584;-78
2022/07/14 01:15:51;;;;;;;3.25;1.60;;;;;;;16.72;79.78;93529.75;2090875;28;20057;-78
2022/07/14 01:16:57;;;;;;;4.10;1.23;;;;;;;16.71;80.98;93533.63;2097785;28;20020;-78
2022/07/14 01:17:58;;;;;;;5.47;1.27;;;;;;;16.77;79.84;93540.75;2106485;28;20020;-78
2022/07/14 01:18:59;;;;;;;2.80;1.40;;;;;;;16.73;81.70;93539.38;2106016;28;20419;-78
2022/07/14 01:19:59;;;;;;;3.30;1.40;;;;;;;16.61;86.54;93544.41;2096170;28;20070;-78
2022/07/14 01:21:00;;;;;;;1.50;1.10;;;;;;;16.57;88.63;93543.78;2093516;28;20029;-79
2022/07/14 01:22:02;;;;;;;1.33;1.10;;;;;;;16.59;87.39;93554.91;2109513;28;20118;-78
2022/07/14 01:23:03;;;;;;;5.18;1.58;;;;;;;16.40;89.21;93552.53;2097422;28;20103;-78
2022/07/14 01:24:04;;;;;;;2.55;1.30;;;;;;;16.45;86.18;93549.28;2089233;28;20021;-78
2022/07/14 01:25:07;;;;;;;3.47;1.30;;;;;;;16.48;84.87;93549.16;2105479;28;20027;-78
2022/07/14 01:26:07;;;;;;;3.22;1.30;;;;;;;16.46;83.84;93551.53;2114275;28;20744;-78
2022/07/14 01:27:08;;;;;;;2.03;1.50;;;;;;;16.45;85.50;93560.81;2093090;28;20033;-78
2022/07/14 01:28:09;;;;;;;1.80;1.10;;;;;;;16.49;82.00;93566.84;2097389;28;20052;-79
2022/07/14 01:29:11;;;;;;;1.38;1.08;;;;;;;16.38;84.41;93558.41;2097319;28;20500;-78
2022/07/14 01:30:12;;;;;;;3.55;1.50;;;;;;;16.42;83.37;93567.13;2088368;28;20111;-78
2022/07/14 01:31:13;;;;;;;1.45;1.20;;;;;;;16.40;85.96;93557.94;2099092;28;20777;-78
2022/07/14 01:32:14;;;;;;;1.88;1.40;;;;;;;16.32;85.74;93558.19;2102968;28;20069;-78
2022/07/14 01:33:15;;;;;;;2.65;1.48;;;;;;;16.34;85.44;93560.47;2103888;28;20028;-78
2022/07/14 01:34:16;;;;;;;3.03;1.50;;;;;;;16.34;84.87;93557.78;2105385;28;20023;-78
2022/07/14 01:35:17;;;;;;;2.03;1.05;;;;;;;16.25;84.39;93555.78;2100166;28;20024;-78
2022/07/14 01:36:18;;;;;;;1.48;1.17;;;;;;;16.20;84.47;93556.34;2099131;28;20029;-78
2022/07/14 01:37:20;;;;;;;3.78;1.42;;;;;;;16.19;84.20;93545.97;2100128;28;20021;-78
2022/07/14 01:38:20;;;;;;;1.88;1.58;;;;;;;16.22;84.20;93542.41;2105136;28;20515;-79
2022/07/14 01:39:21;;;;;;;1.98;1.38;;;;;;;16.15;84.38;93542.66;2112161;28;20058;-78
2022/07/14 01:40:22;;;;;;;2.28;1.40;;;;;;;16.18;84.67;93547.94;2096363;28;20031;-78
2022/07/14 01:41:23;;;;;;;2.92;1.45;;;;;;;16.05;86.08;93549.94;2095271;28;20059;-78
2022/07/14 01:42:24;;;;;;;1.58;1.20;;;;;;;16.07;85.20;93542.94;2095314;28;20025;-78
2022/07/14 01:43:25;;;;;;;4.57;1.40;;;;;;;16.07;85.98;93548.31;2087699;28;20021;-79
2022/07/14 01:44:26;;;;;;;1.73;1.23;;;;;;;16.03;86.63;93550.41;2105854;28;20034;-79
2022/07/14 01:45:27;;;;;;;2.97;1.30;;;;;;;16.02;86.51;93540.81;2111990;28;20556;-78
2022/07/14 01:46:28;;;;;;;2.45;1.48;;;;;;;16.02;86.61;93545.41;2103978;28;20055;-79
2022/07/14 01:47:29;;;;;;;4.82;1.40;;;;;;;15.98;87.69;93548.28;2098814;28;20020;-78
2022/07/14 01:48:30;;;;;;;2.75;1.30;;;;;;;15.95;88.09;93532.22;2112107;28;20021;-78
2022/07/14 01:49:31;;;;;;;2.30;1.20;;;;;;;15.81;89.44;93536.16;2097463;28;20082;-78
2022/07/14 01:50:32;;;;;;;2.15;1.20;;;;;;;15.75;87.96;93530.56;2097305;28;20028;-78
2022/07/14 01:51:33;;;;;;;2.25;1.30;;;;;;;15.66;89.30;93530.50;2096843;28;20017;-78
2022/07/14 01:52:34;;;;;;;2.20;1.42;;;;;;;15.66;88.76;93541.28;2097030;28;20056;-78
2022/07/14 01:53:35;;;;;;;2.40;1.10;;;;;;;15.62;89.58;93533.28;2100509;28;20028;-79
2022/07/14 01:54:36;;;;;;;2.05;1.40;;;;;;;15.49;91.11;93531.81;2098416;28;20028;-79
2022/07/14 01:55:37;;;;;;;2.22;1.20;;;;;;;15.54;90.04;93533.97;2109536;28;20046;-78
2022/07/14 01:56:42;;;;;;;1.58;1.20;;;;;;;15.49;90.78;93529.88;2105333;28;20024;-78
2022/07/14 01:57:43;;;;;;;1.40;1.30;;;;;;;15.55;89.11;93533.53;2094619;28;20481;-78
2022/07/14 01:58:44;;;;;;;1.88;1.30;;;;;;;15.57;88.71;93528.47;2105287;28;20045;-78
2022/07/14 01:59:45;;;;;;;2.00;1.27;;;;;;;15.54;89.28;93526.66;2108011;28;20082;-78
2022/07/14 02:01:39;;;;;;;3.22;1.25;;;;;;;15.47;90.49;93529.56;2107183;28;20035;-78
2022/07/14 02:02:12;;;;;;;2.05;1.30;;;;;;;15.35;91.20;93533.81;2113971;28;20027;-78
2022/07/14 02:03:12;;;;;;;5.22;1.20;;;;;;;15.31;90.88;93533.19;2104727;28;20036;-79
2022/07/14 02:04:15;;;;;;;2.35;1.15;;;;;;;15.32;91.60;93532.00;2092534;28;20017;-79
2022/07/14 02:05:17;;;;;;;2.85;1.33;;;;;;;15.18;93.57;93534.41;2090742;28;20048;-78
2022/07/14 02:06:18;;;;;;;1.95;1.60;;;;;;;15.23;92.82;93536.53;2102799;28;20027;-78
2022/07/14 02:07:19;;;;;;;2.05;1.50;;;;;;;15.22;91.34;93527.72;2104235;28;20024;-78
2022/07/14 02:08:20;;;;;;;2.42;1.17;;;;;;;15.10;93.19;93526.56;2103964;28;20391;-79
2022/07/14 02:09:22;;;;;;;3.28;1.40;;;;;;;15.17;93.06;93522.13;2101331;28;20111;-79
2022/07/14 02:13:03;;;;;;;;;;;;;;;15.18;92.87;93515.53;2114446;28;20030;-78
2022/07/14 02:14:04;;;;;;;1.85;1.30;;;;;;;15.14;93.16;93512.97;2096809;28;20392;-78
2022/07/14 02:15:05;;;;;;;3.33;1.20;;;;;;;15.17;92.89;93516.75;2101974;28;20051;-78
2022/07/14 02:16:08;;;;;;;2.70;1.30;;;;;;;15.11;92.45;93511.16;2111973;28;20020;-79
2022/07/14 02:17:09;;;;;;;5.22;1.42;;;;;;;15.02;93.98;93517.22;2097201;28;20054;-78
2022/07/14 02:18:10;;;;;;;4.10;1.50;;;;;;;15.00;93.94;93519.56;2094570;28;20020;-78
2022/07/14 02:19:11;;;;;;;1.83;1.45;;;;;;;14.90;94.94;93515.28;2088465;28;20043;-78
2022/07/14 02:20:12;;;;;;;2.90;1.48;;;;;;;14.91;95.07;93510.66;2097166;28;20795;-78
2022/07/14 02:21:13;;;;;;;3.90;1.20;;;;;;;14.89;94.84;93519.16;2102383;28;20016;-78
2022/07/14 02:22:14;;;;;;;2.60;1.40;;;;;;;14.96;94.91;93516.25;2109343;28;20495;-78
2022/07/14 02:23:15;;;;;;;3.83;1.65;;;;;;;14.84;95.84;93514.34;2108687;28;20023;-78
2022/07/14 02:24:17;;;;;;;2.15;1.30;;;;;;;14.84;95.97;93508.97;2100337;28;20115;-78
2022/07/14 02:25:18;;;;;;;3.60;1.85;;;;;;;14.89;94.94;93515.72;2101599;28;20036;-78
2022/07/14 02:26:19;;;;;;;3.00;1.42;;;;;;;14.89;95.05;93513.03;2101191;28;20048;-78
2022/07/14 02:27:20;;;;;;;2.38;1.50;;;;;;;14.78;95.58;93506.03;2087379;28;20111;-78
2022/07/14 02:28:22;;;;;;;2.95;1.70;;;;;;;14.66;97.22;93506.03;2088329;28;20027;-78
2022/07/14 02:29:23;;;;;;;2.17;1.27;;;;;;;14.75;96.41;93506.13;2103627;28;20098;-78
2022/07/14 02:30:24;;;;;;;3.88;1.58;;;;;;;14.68;97.26;93506.38;2113122;28;20024;-78
2022/07/14 02:31:25;;;;;;;3.65;1.50;;;;;;;14.66;97.88;93506.03;2099712;28;20071;-78
2022/07/14 02:32:29;;;;;;;2.80;1.60;;;;;;;14.69;97.99;93511.31;2096910;28;20021;-78
2022/07/14 02:33:30;;;;;;;2.97;1.70;;;;;;;14.54;99.11;93512.97;2099985;28;20478;-78
2022/07/14 02:34:31;;;;;;;4.20;1.67;;;;;;;14.58;96.95;93511.66;2099434;28;20090;-78
2022/07/14 02:35:32;;;;;;;3.90;1.70;;;;;;;14.64;96.08;93513.81;2096857;28;20111;-78
2022/07/14 02:36:32;;;;;;;2.30;1.60;;;;;;;14.63;95.78;93505.00;2105514;28;20020;-78
2022/07/14 02:37:33;;;;;;;4.38;1.67;;;;;;;14.65;95.57;93507.25;2111161;28;20039;-78
2022/07/14 02:38:36;;;;;;;5.82;1.98;;;;;;;14.59;96.53;93510.47;2097775;28;20028;-78
2022/07/14 02:39:37;;;;;;;3.97;2.00;;;;;;;14.56;97.51;93505.94;2104268;28;20024;-78
2022/07/14 02:40:38;;;;;;;3.30;1.60;;;;;;;14.39;100.00;93509.91;2105169;28;20504;-78
2022/07/14 02:41:40;;;;;;;5.88;1.92;;;;;;;14.52;97.88;93509.94;2105503;28;20020;-78
2022/07/14 02:42:41;;;;;;;3.63;1.83;;;;;;;14.53;97.46;93508.75;2102864;28;20392;-78
2022/07/14 02:43:42;;;;;;;5.93;1.75;;;;;;;14.55;97.33;93504.44;2088923;28;20031;-78
2022/07/14 02:44:43;;;;;;;2.92;1.70;;;;;;;14.53;97.15;93514.13;2097040;28;20027;-78
2022/07/14 02:45:44;;;;;;;5.13;2.03;;;;;;;14.54;96.54;93512.97;2105202;28;20024;-78
2022/07/14 02:46:45;;;;;;;8.95;1.67;;;;;;;14.53;97.62;93511.44;2102740;28;20103;-78
2022/07/14 02:47:46;;;;;;;4.95;1.77;;;;;;;14.52;97.78;93507.25;2098660;28;20548;-78
2022/07/14 02:48:47;;;;;;;3.25;1.63;;;;;;;14.47;98.22;93515.81;2105510;28;20500;-78
2022/07/14 02:49:48;;;;;;;2.97;1.52;;;;;;;14.42;97.71;93517.13;2096939;28;20032;-78
2022/07/14 02:50:49;;;;;;;5.15;2.55;;;;;;;14.37;99.23;93512.28;2082995;28;20118;-78
2022/07/14 02:51:50;;;;;;;2.92;1.95;;;;;;;14.27;100.00;93514.09;2104826;28;20031;-79
2022/07/14 02:52:51;;;;;;;3.17;1.80;;;;;;;14.26;99.48;93519.91;2104947;28;20016;-78
2022/07/14 02:53:52;;;;;;;3.40;1.58;;;;;;;14.33;98.29;93517.00;2088876;28;20028;-79
2022/07/14 02:54:53;;;;;;;5.60;1.70;;;;;;;14.31;98.44;93513.97;2086357;28;20021;-79
2022/07/14 02:55:54;;;;;;;2.05;1.50;;;;;;;14.28;100.00;93510.22;2088879;28;20025;-78
2022/07/14 02:56:55;;;;;;;3.70;1.70;;;;;;;14.31;100.00;93513.97;2112971;28;20043;-78
2022/07/14 02:57:56;;;;;;;2.30;1.50;;;;;;;14.25;99.93;93513.75;2102882;28;20511;-78
2022/07/14 02:58:57;;;;;;;3.63;1.50;;;;;;;14.18;100.00;93511.31;2097159;28;20025;-78
2022/07/14 02:59:58;;;;;;;2.42;1.48;;;;;;;14.15;100.00;93506.78;2102182;28;20046;-78
2022/07/14 03:00:59;;;;;;;5.57;1.70;;;;;;;14.16;99.19;93502.16;2085559;28;20490;-78
2022/07/14 03:02:00;;;;;;;4.90;1.50;;;;;;;14.10;99.66;93512.69;2096802;28;20589;-78
2022/07/14 03:03:01;;;;;;;4.18;1.90;;;;;;;14.04;99.98;93511.69;2096513;28;20025;-79
2022/07/14 03:04:02;;;;;;;2.95;2.03;;;;;;;13.97;100.00;93514.59;2096131;28;20025;-78
2022/07/14 03:05:04;;;;;;;6.10;1.65;;;;;;;13.96;100.00;93511.16;2105047;28;20034;-80
2022/07/14 03:06:13;;;;;;;4.90;2.05;;;;;;;14.02;100.00;93517.50;2092102;28;20021;-78
2022/07/14 03:07:14;;;;;;;4.40;1.77;;;;;;;14.00;100.00;93511.78;2084866;28;20029;-78
2022/07/14 03:08:15;;;;;;;7.35;1.58;;;;;;;13.97;100.00;93515.34;2092863;28;20508;-78
2022/07/14 03:09:17;;;;;;;5.82;2.00;;;;;;;13.93;100.00;93506.63;2102387;28;20028;-78
2022/07/14 03:10:18;;;;;;;2.53;1.80;;;;;;;13.97;100.00;93509.97;2103884;28;20019;-78
2022/07/14 03:11:19;;;;;;;4.43;1.80;;;;;;;13.95;100.00;93514.25;2108044;28;20024;-78
2022/07/14 03:12:20;;;;;;;3.88;1.83;;;;;;;13.89;100.00;93511.34;2102195;28;20024;-78
2022/07/14 03:13:21;;;;;;;2.55;1.50;;;;;;;13.92;100.00;93513.19;2098790;28;20016;-78
2022/07/14 03:14:22;;;;;;;3.50;1.45;;;;;;;13.91;100.00;93502.84;2102866;28;20491;-78
2022/07/14 03:15:23;;;;;;;2.53;1.63;;;;;;;13.79;100.00;93517.78;2100355;28;20044;-79
2022/07/14 03:16:24;;;;;;;4.47;1.60;;;;;;;13.82;100.00;93514.22;2100480;28;20489;-78
2022/07/14 03:17:25;;;;;;;3.75;1.73;;;;;;;13.70;100.00;93515.72;2091813;28;20048;-78
2022/07/14 03:18:26;;;;;;;1.95;1.55;;;;;;;13.76;100.00;93513.25;2090276;28;20105;-78
2022/07/14 03:19:27;;;;;;;4.80;1.83;;;;;;;13.79;100.00;93515.09;2106812;28;20027;-78
2022/07/14 03:20:29;;;;;;;2.58;1.67;;;;;;;13.84;100.00;93509.94;2112333;28;20063;-79
2022/07/14 03:21:30;;;;;;;4.13;1.88;;;;;;;13.89;100.00;93510.59;2106579;28;20153;-79
2022/07/14 03:22:31;;;;;;;2.78;1.60;;;;;;;13.58;100.00;93508.38;2104609;28;20042;-78
2022/07/14 03:23:32;;;;;;;5.88;1.80;;;;;;;13.74;100.00;93507.53;2106975;28;20032;-78
2022/07/14 03:24:33;;;;;;;4.70;1.95;;;;;;;13.82;100.00;93500.78;2100711;28;20035;-79
2022/07/14 03:25:34;;;;;;;3.58;1.60;;;;;;;13.85;100.00;93503.38;2098380;28;20032;-78
2022/07/14 03:26:35;;;;;;;2.78;1.70;;;;;;;13.93;100.00;93497.81;2105039;28;20019;-78
2022/07/14 03:27:38;;;;;;;3.72;1.75;;;;;;;13.88;100.00;93507.16;2088165;28;20032;-78
2022/07/14 03:28:40;;;;;;;4.95;2.00;;;;;;;13.85;100.00;93506.06;2098441;28;20020;-78
2022/07/14 03:29:42;;;;;;;2.65;1.80;;;;;;;13.90;100.00;93510.16;2093623;28;20024;-79
2022/07/14 03:30:43;;;;;;;2.58;2.00;;;;;;;13.91;100.00;93503.59;2098297;28;20024;-78
2022/07/14 03:31:44;;;;;;;3.60;2.25;;;;;;;13.89;100.00;93510.59;2090438;28;20029;-78
2022/07/14 03:32:45;;;;;;;3.88;1.95;;;;;;;13.83;100.00;93511.13;2106724;28;20057;-79
2022/07/14 03:33:45;;;;;;;4.75;2.13;;;;;;;13.89;100.00;93514.03;2106039;28;20384;-78
2022/07/14 03:34:46;;;;;;;2.63;2.08;;;;;;;13.92;100.00;93512.44;2089874;28;20060;-79
2022/07/14 03:35:48;;;;;;;3.28;2.20;;;;;;;13.97;100.00;93511.91;2089980;28;20028;-78
2022/07/14 03:36:49;;;;;;;4.65;1.70;;;;;;;13.89;100.00;93508.66;2098371;28;20028;-79
2022/07/14 03:37:50;;;;;;;7.20;2.28;;;;;;;13.95;100.00;93503.50;2106695;28;20400;-78
2022/07/14 03:38:51;;;;;;;3.88;2.00;;;;;;;13.97;100.00;93507.28;2100242;28;20020;-78
2022/07/14 03:39:52;;;;;;;5.03;2.00;;;;;;;14.01;100.00;93501.81;2103790;28;20077;-78
2022/07/14 03:40:53;;;;;;;3.10;1.80;;;;;;;14.01;100.00;93507.19;2115099;28;20113;-78
2022/07/14 03:41:54;;;;;;;10.07;2.28;;;;;;;14.01;100.00;93502.56;2109621;28;20020;-79
2022/07/14 03:42:55;;;;;;;4.32;2.03;;;;;;;14.01;100.00;93499.88;2108723;28;20438;-78
2022/07/14 03:43:56;;;;;;;4.22;1.92;;;;;;;13.99;100.00;93499.53;2097792;28;20468;-78
2022/07/14 03:44:57;;;;;;;6.03;2.30;;;;;;;14.00;100.00;93505.66;2086133;28;20033;-78
2022/07/14 03:45:57;;;;;;;3.47;1.70;;;;;;;13.99;100.00;93498.78;2097172;28;20036;-78
2022/07/14 03:46:59;;;;;;;3.63;2.00;;;;;;;14.01;100.00;93501.81;2098084;28;20020;-78
2022/07/14 03:48:00;;;;;;;3.63;1.90;;;;;;;14.01;100.00;93497.19;2090321;28;20554;-78
2022/07/14 03:49:01;;;;;;;3.83;1.85;;;;;;;14.04;100.00;93504.38;2098118;28;20040;-78
2022/07/14 03:50:02;;;;;;;4.53;1.88;;;;;;;13.98;100.00;93497.28;2098148;28;20032;-78
2022/07/14 03:51:04;;;;;;;3.70;1.67;;;;;;;14.02;100.00;93493.31;2083027;28;20029;-78
2022/07/14 03:52:06;;;;;;;5.10;2.50;;;;;;;13.94;100.00;93496.63;2106630;28;20020;-78
2022/07/14 03:53:08;;;;;;;4.90;1.73;;;;;;;13.89;100.00;93494.47;2106578;28;20492;-78
2022/07/14 03:54:10;;;;;;;3.17;1.80;;;;;;;13.93;100.00;93495.88;2102304;28;20447;-78
2022/07/14 03:55:11;;;;;;;2.13;1.80;;;;;;;13.93;100.00;93495.88;2106396;28;20130;-78
2022/07/14 03:56:12;;;;;;;5.93;1.70;;;;;;;13.92;100.00;93499.75;2100180;28;20143;-78
2022/07/14 03:57:14;;;;;;;2.97;1.92;;;;;;;13.93;100.00;93498.56;2114765;28;20076;-78
2022/07/14 03:58:15;;;;;;;4.55;1.75;;;;;;;13.98;100.00;93492.66;2106687;28;20546;-78
2022/07/14 03:59:16;;;;;;;4.45;1.77;;;;;;;14.01;100.00;93497.19;2104894;28;20027;-78
2022/07/14 04:00:17;;;;;;;4.05;1.88;;;;;;;14.04;100.00;93490.94;2091006;28;20112;-78
2022/07/14 04:01:18;;;;;;;5.13;2.05;;;;;;;13.98;100.00;93487.28;2089514;28;20409;-78
2022/07/14 04:02:19;;;;;;;2.65;1.73;;;;;;;13.96;100.00;93495.03;2085031;28;20025;-78
2022/07/14 04:03:20;;;;;;;4.55;1.88;;;;;;;13.93;100.00;93490.50;2094603;28;20029;-78
2022/07/14 04:04:20;;;;;;;4.47;1.98;;;;;;;13.90;100.00;93488.66;2099718;28;20020;-79
2022/07/14 04:05:22;;;;;;;4.45;2.00;;;;;;;13.90;100.00;93487.91;2106446;28;20023;-78
2022/07/14 04:06:23;;;;;;;4.00;1.70;;;;;;;13.87;100.00;93484.13;2100017;28;20017;-79
2022/07/14 04:07:24;;;;;;;3.25;1.73;;;;;;;13.90;100.00;93483.28;2106650;28;20028;-78
2022/07/14 04:08:25;;;;;;;2.60;1.80;;;;;;;13.90;100.00;93480.59;2089698;28;20025;-78
2022/07/14 04:09:26;;;;;;;5.70;2.20;;;;;;;13.98;100.00;93481.91;2106603;28;20035;-78
2022/07/14 04:10:27;;;;;;;4.70;1.92;;;;;;;13.99;100.00;93491.47;2099865;28;20110;-78
2022/07/14 04:11:28;;;;;;;4.25;2.38;;;;;;;14.00;100.00;93489.53;2092711;28;20447;-78
2022/07/14 04:12:29;;;;;;;3.53;2.00;;;;;;;13.97;100.00;93480.41;2098212;28;20028;-78
2022/07/14 04:13:32;;;;;;;3.25;1.95;;;;;;;13.93;100.00;93489.75;2111881;28;20020;-78
2022/07/14 04:14:33;;;;;;;7.53;2.22;;;;;;;13.93;100.00;93487.81;2098131;28;20081;-78
2022/07/14 04:15:37;;;;;;;5.78;2.17;;;;;;;13.96;100.00;93489.66;2098400;28;20048;-78
2022/07/14 04:16:39;;;;;;;4.15;2.17;;;;;;;13.94;100.00;93494.69;2109640;28;20075;-78
2022/07/14 04:17:40;;;;;;;4.07;2.25;;;;;;;13.98;100.00;93489.97;2106638;28;20030;-78
2022/07/14 04:18:42;;;;;;;2.22;1.55;;;;;;;13.99;100.00;93491.47;2114438;28;20050;-78
2022/07/14 04:19:43;;;;;;;6.25;2.10;;;;;;;14.02;100.00;93493.31;2114481;28;20681;-78
2022/07/14 04:20:48;;;;;;;5.25;1.85;;;;;;;13.94;100.00;93494.69;2095040;28;20046;-78
2022/07/14 04:21:49;;;;;;;3.60;2.00;;;;;;;13.98;100.00;93491.91;2106528;28;20034;-78
2022/07/14 04:22:51;;;;;;;2.58;1.90;;;;;;;13.94;100.00;93493.94;2103582;28;20148;-78
2022/07/14 04:23:52;;;;;;;6.03;2.10;;;;;;;14.07;100.00;93498.16;2099118;28;20028;-78
2022/07/14 04:24:53;;;;;;;6.68;2.00;;;;;;;14.13;100.00;93498.38;2097761;28;20031;-78
2022/07/14 04:25:54;;;;;;;6.32;2.00;;;;;;;14.21;100.00;93494.28;2089588;28;20021;-78
2022/07/14 04:26:55;;;;;;;4.40;1.85;;;;;;;14.31;100.00;93500.53;2089758;28;20449;-78
2022/07/14 04:27:56;;;;;;;3.53;1.67;;;;;;;14.37;100.00;93501.53;2106122;28;20020;-78
2022/07/14 04:28:57;;;;;;;6.38;1.92;;;;;;;14.39;100.00;93501.81;2100110;28;20028;-78
2022/07/14 04:29:58;;;;;;;8.23;2.17;;;;;;;14.45;100.00;93496.69;2089657;28;20029;-78
2022/07/14 04:30:59;;;;;;;7.47;2.38;;;;;;;14.49;100.00;93500.06;2097794;28;20033;-79
2022/07/14 04:32:02;;;;;;;5.70;1.80;;;;;;;14.53;97.74;93501.44;2115096;27;20044;-78
2022/07/14 04:33:03;;;;;;;3.47;2.10;;;;;;;14.56;97.82;93497.88;2100230;28;20465;-78
2022/07/14 04:34:04;;;;;;;2.60;1.95;;;;;;;14.53;99.16;93506.81;2091399;28;20049;-79
2022/07/14 04:35:05;;;;;;;2.72;2.30;;;;;;;14.58;97.24;93500.16;2109677;28;20460;-78
2022/07/14 04:36:08;;;;;;;2.38;2.00;;;;;;;14.58;96.47;93508.97;2119138;27;20036;-78
2022/07/14 04:37:10;;;;;;;5.18;2.35;;;;;;;14.57;96.59;93502.09;2100214;28;20030;-78
2022/07/14 04:38:11;;;;;;;2.50;2.10;;;;;;;14.56;97.75;93508.63;2108454;28;20487;-79
2022/07/14 04:39:12;;;;;;;3.25;1.98;;;;;;;14.57;97.42;93510.16;2109160;28;20030;-78
2022/07/14 04:40:13;;;;;;;4.15;2.00;;;;;;;14.62;100.00;93514.25;2109120;28;20563;-78
2022/07/14 04:41:14;;;;;;;5.55;1.73;;;;;;;14.55;98.91;93509.06;2092630;28;20024;-78
2022/07/14 04:42:15;;;;;;;2.60;1.70;;;;;;;14.52;99.84;93508.00;2106214;28;20016;-79
2022/07/14 04:43:17;;;;;;;4.18;2.30;;;;;;;14.54;99.31;93512.97;2111929;28;20026;-78
2022/07/14 04:44:18;;;;;;;6.40;2.20;;;;;;;14.51;100.00;93505.75;2106021;28;20120;-78
2022/07/14 04:45:20;;;;;;;2.00;1.80;;;;;;;14.51;100.00;93505.75;2099179;28;20024;-78
2022/07/14 04:46:21;;;;;;;2.80;1.98;;;;;;;14.46;100.00;93504.31;2097798;28;20108;-78
2022/07/14 04:47:22;;;;;;;4.20;2.17;;;;;;;14.45;100.00;93507.44;2098076;28;20035;-78
2022/07/14 04:48:24;;;;;;;3.75;2.20;;;;;;;14.44;100.00;93506.66;2102989;28;20086;-78
2022/07/14 04:52:04;;;;;;;5.38;1.95;;;;;;;14.39;100.00;93514.53;2104736;28;20024;-79
2022/07/14 04:53:05;;;;;;;3.15;1.98;;;;;;;14.41;100.00;93512.19;2097775;28;20460;-78
2022/07/14 04:54:08;;;;;;;4.65;2.35;;;;;;;14.39;100.00;93514.53;2099906;28;20050;-78